Time;durP1;ratioP1;P1;durP2;ratioP2;P2;SDS_P1;SDS_P2;PMS_P1;PMS_P2;Temp;Humidity;BMP_temperature;BMP_pressure;BME280_temperature;BME280_humidity;BME280_pressure;Samples;Min_cycle;Max_cycle;Signal;HPM_P1;HPM_P2
2022/08/08 00:02:45;;;;;;;;;;;;;;;17.32;62.12;101173.94;105879;1277;22776;-73
2022/08/08 00:05:44;;;;;;;6.60;4.90;;;;;;;17.31;62.24;101177.55;106029;1274;25342;-72
2022/08/08 00:08:35;;;;;;;7.70;5.80;;;;;;;17.27;62.55;101176.92;106006;1274;24082;-74
2022/08/08 00:11:39;;;;;;;9.20;5.30;;;;;;;17.25;62.42;101175.38;106025;1274;25244;-75
2022/08/08 00:14:48;;;;;;;8.00;5.50;;;;;;;17.21;62.76;101167.63;105964;1274;25564;-75
2022/08/08 00:17:51;;;;;;;7.10;5.20;;;;;;;17.15;62.97;101168.51;106233;1271;24062;-72
2022/08/08 00:20:53;;;;;;;7.00;4.80;;;;;;;17.08;63.14;101167.21;106576;1271;25286;-74
2022/08/08 00:23:41;;;;;;;10.20;5.40;;;;;;;17.05;63.22;101164.77;106626;1271;23943;-73
2022/08/08 00:26:29;;;;;;;7.00;5.00;;;;;;;17.01;63.43;101161.48;106581;1271;26120;-71
2022/08/08 00:29:20;;;;;;;9.50;5.30;;;;;;;16.99;63.31;101161.20;106512;1271;25349;-75
2022/08/08 00:32:16;;;;;;;8.20;5.20;;;;;;;16.97;63.65;101159.79;106618;1268;22553;-74
2022/08/08 00:35:31;;;;;;;6.60;4.70;;;;;;;16.96;63.73;101157.86;106338;1268;22534;-75
2022/08/08 00:38:06;;;;;;;6.80;5.00;;;;;;;16.98;63.91;101156.95;106255;1271;22554;-75
2022/08/08 00:41:34;;;;;;;10.10;5.30;;;;;;;17.05;63.77;101156.61;103000;1310;545256;-73
2022/08/08 00:44:40;;;;;;;6.10;5.20;;;;;;;17.03;63.83;101153.06;105292;1284;24834;-73
2022/08/08 00:47:34;;;;;;;6.50;5.20;;;;;;;17.01;63.93;101154.55;105218;1286;23963;-71
2022/08/08 00:50:50;;;;;;;7.50;4.70;;;;;;;16.97;64.06;101155.00;105130;1287;22560;-75
2022/08/08 00:53:37;;;;;;;7.10;4.80;;;;;;;16.94;64.12;101156.86;105336;1287;22553;-75
2022/08/08 00:56:59;;;;;;;9.30;4.80;;;;;;;16.90;64.17;101155.34;103944;1283;22573;-76
2022/08/08 01:00:05;;;;;;;8.90;5.20;;;;;;;16.85;64.46;101155.98;105340;1283;25363;-78
2022/08/08 01:02:57;;;;;;;6.40;4.70;;;;;;;16.78;64.52;101147.80;105447;1283;24119;-76
2022/08/08 01:06:03;;;;;;;6.50;5.10;;;;;;;16.73;64.80;101151.46;105890;1277;22528;-71
2022/08/08 01:09:03;;;;;;;9.80;4.90;;;;;;;16.72;64.76;101151.84;106130;1277;24710;-74
2022/08/08 01:12:11;;;;;;;8.60;4.60;;;;;;;16.71;65.02;101154.89;105901;1277;24231;-73
2022/08/08 01:15:29;;;;;;;5.00;4.40;;;;;;;16.71;65.05;101152.04;105910;1277;25355;-75
2022/08/08 01:18:22;;;;;;;7.00;5.10;;;;;;;16.72;64.95;101156.99;105840;1277;25299;-75
2022/08/08 01:21:29;;;;;;;7.30;4.60;;;;;;;16.70;65.27;101153.30;105787;1278;25416;-74
2022/08/08 01:24:43;;;;;;;7.50;4.50;;;;;;;16.69;64.96;101152.44;105677;1277;24086;-73
2022/08/08 01:27:42;;;;;;;5.40;4.80;;;;;;;16.64;65.04;101150.77;105836;1277;22707;-73
2022/08/08 01:30:51;;;;;;;8.40;4.50;;;;;;;16.59;65.24;101146.24;105915;1277;24818;-75
2022/08/08 01:33:39;;;;;;;8.30;5.10;;;;;;;16.56;65.24;101144.88;105943;1277;25194;-72
2022/08/08 01:36:34;;;;;;;;;;;;;;;16.52;65.47;101140.34;105833;1275;22512;-72
2022/08/08 01:39:28;;;;;;;7.30;4.70;;;;;;;16.47;65.25;101137.45;105818;1277;22645;-73
2022/08/08 01:42:34;;;;;;;6.90;5.30;;;;;;;16.43;65.48;101133.98;105739;1277;25309;-72
2022/08/08 01:45:45;;;;;;;6.60;4.70;;;;;;;16.39;65.51;101135.66;105658;1277;22687;-73
2022/08/08 01:48:21;;;;;;;6.70;4.60;;;;;;;16.35;65.64;101135.03;105914;1278;22630;-73
2022/08/08 01:51:28;;;;;;;7.20;4.80;;;;;;;16.33;65.80;101136.14;105887;1277;24461;-70
2022/08/08 01:54:43;;;;;;;6.00;4.50;;;;;;;16.33;65.78;101137.39;105782;1277;22563;-74
2022/08/08 01:58:01;;;;;;;6.40;4.60;;;;;;;16.28;65.71;101141.40;105855;1277;25363;-73
2022/08/08 02:00:50;;;;;;;7.30;4.20;;;;;;;16.22;65.87;101143.14;105761;1278;22605;-74
2022/08/08 02:03:54;;;;;;;8.60;5.10;;;;;;;16.19;65.93;101148.70;105903;1278;22679;-77
2022/08/08 02:06:45;;;;;;;6.00;4.40;;;;;;;16.18;65.87;101147.46;105741;1277;22563;-73
2022/08/08 02:09:33;;;;;;;4.80;4.20;;;;;;;16.19;65.83;101152.41;105852;1277;22504;-73
2022/08/08 02:12:59;;;;;;;5.70;4.60;;;;;;;16.19;65.82;101156.17;105753;1277;25346;-71
2022/08/08 02:15:37;;;;;;;7.20;4.70;;;;;;;16.18;65.88;101153.67;105900;1277;25227;-71
2022/08/08 02:18:58;;;;;;;7.10;4.80;;;;;;;16.17;65.84;101154.96;105831;1278;22565;-74
2022/08/08 02:24:30;;;;;;;11.50;4.60;;;;;;;16.12;65.76;101155.77;105791;1277;22545;-77
2022/08/08 02:27:06;;;;;;;5.70;4.50;;;;;;;16.13;65.79;101160.73;105805;1277;24424;-75
2022/08/08 02:30:02;;;;;;;7.70;4.60;;;;;;;16.15;65.83;101164.95;105708;1277;25245;-71
2022/08/08 02:32:46;;;;;;;6.60;4.40;;;;;;;16.15;65.84;101163.16;105867;1277;22537;-74
2022/08/08 02:35:42;;;;;;;6.70;4.70;;;;;;;16.14;65.86;101167.81;105970;1277;22565;-75
2022/08/08 02:38:46;;;;;;;6.40;5.00;;;;;;;16.14;66.12;101165.85;106061;1280;22697;-72
2022/08/08 02:41:20;;;;;;;5.50;4.00;;;;;;;16.12;66.08;101163.06;105899;1277;22547;-77
2022/08/08 02:44:34;;;;;;;7.70;4.90;;;;;;;16.11;66.13;101165.03;106051;1277;25239;-73
2022/08/08 02:48:14;;;;;;;6.80;4.80;;;;;;;16.07;66.26;101171.67;106077;1280;22563;-73
2022/08/08 02:50:58;;;;;;;5.30;4.40;;;;;;;16.01;66.28;101170.02;105455;1280;22534;-75
2022/08/08 02:53:55;;;;;;;6.90;4.60;;;;;;;15.99;66.36;101169.87;105742;1281;22631;-76
2022/08/08 02:56:44;;;;;;;6.50;4.60;;;;;;;15.98;66.52;101173.45;105612;1280;22815;-73
2022/08/08 02:59:31;;;;;;;7.30;4.70;;;;;;;15.98;66.48;101172.56;106132;1280;22554;-85
2022/08/08 03:02:53;;;;;;;5.30;4.30;;;;;;;16.00;66.72;101178.90;105282;1280;24297;-74
2022/08/08 03:05:48;;;;;;;7.80;4.40;;;;;;;16.04;66.48;101176.36;105535;1280;25361;-76
2022/08/08 03:08:45;;;;;;;6.40;4.30;;;;;;;16.00;66.37;101173.59;105233;1281;22531;-74
2022/08/08 03:11:37;;;;;;;;;;;;;;;15.92;66.10;101174.05;106176;1274;22546;-75
2022/08/08 03:14:45;;;;;;;4.80;4.00;;;;;;;15.88;66.05;101171.66;106271;1273;22525;-75
2022/08/08 03:18:06;;;;;;;4.90;4.30;;;;;;;15.81;66.09;101166.27;106240;1271;25820;-75
2022/08/08 03:20:43;;;;;;;6.50;4.00;;;;;;;15.79;66.15;101168.98;105932;1277;25303;-76
2022/08/08 03:23:21;;;;;;;4.20;3.30;;;;;;;15.81;66.09;101178.00;105942;1277;25303;-74
2022/08/08 03:25:50;;;;;;;5.60;3.60;;;;;;;15.82;65.78;101179.73;105801;1277;22532;-75
2022/08/08 03:28:32;;;;;;;6.30;4.40;;;;;;;15.83;65.90;101175.46;105863;1277;26488;-75
2022/08/08 03:33:16;;;;;;;8.90;3.80;;;;;;;15.82;65.90;101179.21;105637;1277;22577;-77
2022/08/08 03:33:52;;;;;;;5.80;3.50;;;;;;;15.78;65.87;101180.34;105427;1281;25424;-74
2022/08/08 03:36:28;;;;;;;7.00;3.40;;;;;;;15.76;65.53;101183.41;105320;1281;25095;-73
2022/08/08 03:38:58;;;;;;;4.00;3.20;;;;;;;15.78;65.60;101183.38;105487;1277;22663;-75
2022/08/08 03:41:42;;;;;;;6.20;3.70;;;;;;;15.77;65.59;101180.38;105909;1276;25526;-75
2022/08/08 03:44:33;;;;;;;8.20;3.60;;;;;;;15.78;65.49;101184.60;105725;1277;22690;-74
2022/08/08 03:47:03;;;;;;;6.60;3.40;;;;;;;15.77;65.45;101182.33;105312;1282;26505;-73
2022/08/08 03:49:47;;;;;;;8.20;3.60;;;;;;;15.73;65.57;101184.35;105533;1282;22548;-74
2022/08/08 03:52:30;;;;;;;5.00;3.50;;;;;;;15.75;65.63;101187.68;105103;1282;22557;-73
2022/08/08 03:55:00;;;;;;;5.30;3.10;;;;;;;15.73;65.64;101187.89;105239;1282;25317;-73
2022/08/08 03:57:48;;;;;;;;;;;;;;;15.75;65.75;101185.38;105182;1282;22528;-76
2022/08/08 04:00:35;;;;;;;4.50;3.60;;;;;;;15.74;65.86;101187.70;105070;1282;25580;-75
2022/08/08 04:03:35;;;;;;;7.80;4.10;;;;;;;15.74;65.87;101192.85;105196;1284;25299;-76
2022/08/08 04:06:22;;;;;;;;;;;;;;;15.74;65.81;101193.20;105775;1279;22652;-77
2022/08/08 04:08:55;;;;;;;8.20;4.00;;;;;;;15.77;65.84;101191.56;105621;1279;25553;-76
2022/08/08 04:11:22;;;;;;;7.50;3.80;;;;;;;15.79;65.81;101186.73;106235;1271;25318;-77
2022/08/08 04:13:52;;;;;;;5.90;3.50;;;;;;;15.80;65.80;101188.49;106461;1271;25236;-74
2022/08/08 04:16:39;;;;;;;4.50;3.60;;;;;;;15.83;65.72;101192.16;106444;1271;23911;-72
2022/08/08 04:19:11;;;;;;;9.00;4.30;;;;;;;15.90;65.66;101192.40;105804;1278;22799;-76
2022/08/08 04:21:50;;;;;;;5.30;3.50;;;;;;;15.93;65.77;101193.94;105274;1282;25251;-76
2022/08/08 04:24:17;;;;;;;11.20;3.80;;;;;;;15.95;65.75;101196.75;105364;1282;23959;-75
2022/08/08 04:26:56;;;;;;;4.80;3.50;;;;;;;15.96;65.68;101194.59;105431;1282;25383;-74
2022/08/08 04:29:27;;;;;;;7.10;3.50;;;;;;;16.01;65.57;101199.33;105321;1282;25244;-74
2022/08/08 04:32:05;;;;;;;8.50;3.30;;;;;;;16.02;65.22;101200.55;105225;1282;26705;-74
2022/08/08 04:34:33;;;;;;;5.60;3.20;;;;;;;16.01;65.09;101200.58;105082;1285;24257;-71
2022/08/08 04:37:22;;;;;;;6.00;2.90;;;;;;;16.00;65.29;101200.40;105536;1276;25503;-73
2022/08/08 04:39:59;;;;;;;6.70;3.60;;;;;;;16.02;65.04;101204.29;105898;1272;25243;-73
2022/08/08 04:42:35;;;;;;;4.70;3.20;;;;;;;16.04;65.16;101202.48;106378;1271;26610;-76
2022/08/08 04:45:12;;;;;;;5.10;2.80;;;;;;;16.06;65.06;101203.33;106059;1277;24740;-71
2022/08/08 04:47:39;;;;;;;6.50;2.80;;;;;;;16.09;65.11;101207.35;105909;1277;22607;-72
2022/08/08 04:50:14;;;;;;;4.50;3.00;;;;;;;16.14;65.19;101203.35;105759;1277;23950;-72
2022/08/08 04:52:55;;;;;;;5.60;3.00;;;;;;;16.18;64.90;101200.25;105847;1277;25538;-78
2022/08/08 04:55:32;;;;;;;4.30;2.90;;;;;;;16.18;64.88;101205.02;105908;1277;25492;-73
2022/08/08 04:58:19;;;;;;;5.10;3.20;;;;;;;16.18;65.01;101203.45;105842;1277;25258;-70
2022/08/08 05:00:49;;;;;;;7.70;3.10;;;;;;;16.22;65.08;101204.44;105907;1277;22543;-73
2022/08/08 05:03:18;;;;;;;8.50;3.20;;;;;;;16.23;65.23;101207.61;106108;1271;23319;-72
2022/08/08 05:06:06;;;;;;;4.60;3.30;;;;;;;16.29;65.08;101208.92;106180;1271;23818;-69
2022/08/08 05:08:46;;;;;;;6.60;3.00;;;;;;;16.33;65.08;101212.39;106283;1274;25318;-73
2022/08/08 05:11:21;;;;;;;6.50;3.00;;;;;;;16.40;65.09;101209.23;106269;1271;24363;-72
2022/08/08 05:13:56;;;;;;;5.90;3.50;;;;;;;16.45;65.01;101212.34;106121;1271;26471;-72
2022/08/08 05:16:30;;;;;;;8.80;3.70;;;;;;;16.47;64.86;101213.35;106245;1271;25306;-77
2022/08/08 05:19:18;;;;;;;8.40;3.70;;;;;;;16.48;64.93;101213.16;105926;1272;25239;-75
2022/08/08 05:22:07;;;;;;;7.10;3.00;;;;;;;16.51;64.80;101211.15;105952;1271;25315;-72
2022/08/08 05:24:37;;;;;;;5.50;3.30;;;;;;;16.54;64.64;101210.91;106323;1271;22525;-73
2022/08/08 05:27:06;;;;;;;6.80;3.30;;;;;;;16.58;64.66;101210.30;106227;1271;24711;-73
2022/08/08 05:29:36;;;;;;;4.30;2.70;;;;;;;16.61;64.65;101213.59;106309;1271;22613;-73
2022/08/08 05:32:08;;;;;;;5.00;3.10;;;;;;;16.68;64.38;101214.54;106020;1271;24467;-70
2022/08/08 05:34:46;;;;;;;3.80;3.10;;;;;;;16.77;64.46;101211.67;106241;1271;22684;-74
2022/08/08 05:37:22;;;;;;;5.70;3.20;;;;;;;16.85;64.25;101212.02;106220;1271;25289;-70
2022/08/08 05:40:06;;;;;;;5.80;3.30;;;;;;;16.92;64.02;101220.23;106065;1271;25243;-72
2022/08/08 05:42:41;;;;;;;7.60;2.50;;;;;;;16.98;63.83;101216.37;106082;1271;25238;-69
2022/08/08 05:45:13;;;;;;;7.60;3.00;;;;;;;17.01;63.77;101217.00;105990;1271;22687;-70
2022/08/08 05:48:00;;;;;;;8.30;3.40;;;;;;;17.04;63.63;101227.42;106365;1271;25224;-68
2022/08/08 05:50:35;;;;;;;5.60;3.10;;;;;;;17.08;63.64;101227.36;106220;1271;25350;-73
2022/08/08 05:53:06;;;;;;;5.70;2.80;;;;;;;17.12;63.54;101229.62;106238;1271;25359;-69
2022/08/08 05:55:57;;;;;;;8.60;3.50;;;;;;;17.17;63.65;101227.89;106083;1271;24246;-74
2022/08/08 05:58:43;;;;;;;9.30;3.30;;;;;;;17.20;63.42;101228.34;106337;1271;22841;-74
2022/08/08 06:01:26;;;;;;;4.60;2.60;;;;;;;17.26;63.23;101229.63;106171;1271;22991;-71
2022/08/08 06:04:16;;;;;;;6.00;3.00;;;;;;;17.30;63.02;101231.14;106023;1271;22584;-73
2022/08/08 06:06:51;;;;;;;6.10;2.90;;;;;;;17.33;62.80;101228.94;106219;1271;25350;-74
2022/08/08 06:09:27;;;;;;;8.60;3.50;;;;;;;17.37;62.70;101231.69;106157;1271;24247;-74
2022/08/08 06:12:15;;;;;;;4.20;3.10;;;;;;;17.41;62.64;101235.51;106356;1271;22548;-73
2022/08/08 06:14:59;;;;;;;7.00;3.00;;;;;;;17.48;62.54;101236.05;106212;1271;24086;-70
2022/08/08 06:17:35;;;;;;;5.50;3.40;;;;;;;17.53;62.31;101232.02;105874;1276;25497;-83
2022/08/08 06:20:23;;;;;;;6.00;3.40;;;;;;;17.57;62.19;101232.08;105793;1276;24200;-69
2022/08/08 06:22:53;;;;;;;5.80;3.10;;;;;;;17.64;62.14;101233.88;105433;1282;22576;-72
2022/08/08 06:25:27;;;;;;;5.50;2.70;;;;;;;17.70;61.84;101232.66;105171;1281;25325;-70
2022/08/08 06:28:28;;;;;;;4.70;2.70;;;;;;;17.78;61.63;101234.77;105292;1281;24249;-71
2022/08/08 06:31:03;;;;;;;8.50;2.60;;;;;;;17.85;61.40;101235.30;105367;1280;25448;-72
2022/08/08 06:34:01;;;;;;;4.70;2.70;;;;;;;17.91;61.15;101236.20;105380;1281;25569;-71
2022/08/08 06:36:49;;;;;;;6.20;2.70;;;;;;;18.00;60.63;101234.73;105717;1276;22535;-74
2022/08/08 06:39:23;;;;;;;6.70;2.50;;;;;;;18.08;60.62;101237.37;106089;1277;22665;-73
2022/08/08 06:41:55;;;;;;;9.10;2.50;;;;;;;18.16;60.07;101237.56;106076;1271;22704;-72
2022/08/08 06:44:26;;;;;;;3.20;1.60;;;;;;;18.25;59.86;101238.91;105953;1271;22556;-72
2022/08/08 06:46:57;;;;;;;4.30;1.90;;;;;;;18.34;59.22;101244.55;105943;1271;22543;-71
2022/08/08 06:49:26;;;;;;;3.20;2.20;;;;;;;18.42;59.23;101237.56;106287;1271;22541;-72
2022/08/08 06:52:14;;;;;;;6.10;1.90;;;;;;;18.53;59.10;101239.90;106201;1271;22518;-70
2022/08/08 06:54:43;;;;;;;5.60;3.00;;;;;;;18.63;59.12;101240.69;105907;1274;22597;-71
2022/08/08 06:57:15;;;;;;;4.90;2.20;;;;;;;18.73;59.02;101243.98;106008;1274;25239;-72
2022/08/08 06:59:44;;;;;;;2.60;2.00;;;;;;;18.83;58.73;101247.26;106011;1274;22652;-72
2022/08/08 07:02:33;;;;;;;3.10;1.50;;;;;;;18.93;58.37;101247.48;106044;1274;22512;-74
2022/08/08 07:05:13;;;;;;;3.40;2.10;;;;;;;19.03;57.86;101244.69;105913;1274;25502;-71
2022/08/08 07:07:50;;;;;;;4.40;2.00;;;;;;;19.12;57.54;101241.41;106028;1274;22698;-69
2022/08/08 07:10:22;;;;;;;5.20;2.20;;;;;;;19.21;57.46;101241.85;105968;1274;24591;-70
2022/08/08 07:13:07;;;;;;;7.10;2.40;;;;;;;19.27;57.41;101242.16;105999;1271;26498;-69
2022/08/08 07:15:44;;;;;;;3.70;1.70;;;;;;;19.36;57.37;101246.02;106201;1271;23094;-73
2022/08/08 07:18:49;;;;;;;4.60;1.60;;;;;;;19.44;56.62;101242.90;106079;1271;22541;-72
2022/08/08 07:21:26;;;;;;;4.10;1.60;;;;;;;19.51;56.26;101243.37;106060;1271;22555;-69
2022/08/08 07:24:04;;;;;;;2.90;1.50;;;;;;;19.59;56.07;101245.79;105635;1279;22534;-72
2022/08/08 07:26:42;;;;;;;2.40;1.40;;;;;;;19.66;55.81;101247.16;105730;1278;22622;-71
2022/08/08 07:29:13;;;;;;;7.60;2.00;;;;;;;19.72;55.46;101246.11;105764;1277;22547;-72
2022/08/08 07:32:02;;;;;;;3.80;1.50;;;;;;;19.75;55.22;101247.41;105615;1278;22730;-70
2022/08/08 07:34:30;;;;;;;3.50;1.80;;;;;;;19.79;54.95;101250.48;105921;1279;24120;-72
2022/08/08 07:37:04;;;;;;;3.10;1.90;;;;;;;19.83;54.94;101254.45;105768;1277;25236;-74
2022/08/08 07:39:42;;;;;;;2.70;1.90;;;;;;;19.88;55.12;101256.45;105453;1282;23211;-73
2022/08/08 07:42:29;;;;;;;3.60;1.70;;;;;;;19.95;55.39;101257.98;105712;1274;23194;-70
2022/08/08 07:45:02;;;;;;;4.90;1.90;;;;;;;19.98;55.11;101255.19;105804;1274;25931;-71
2022/08/08 07:47:31;;;;;;;4.20;1.80;;;;;;;20.04;55.31;101255.39;105939;1274;22553;-69
2022/08/08 07:50:06;;;;;;;7.60;2.10;;;;;;;20.10;55.19;101257.00;105854;1274;22531;-71
2022/08/08 07:52:38;;;;;;;4.50;1.50;;;;;;;20.15;55.36;101257.31;105995;1274;22796;-71
2022/08/08 07:55:21;;;;;;;3.40;1.60;;;;;;;20.22;54.78;101259.39;105843;1274;24425;-72
2022/08/08 07:58:22;;;;;;;7.50;2.00;;;;;;;20.31;54.11;101259.82;106061;1271;25226;-73
2022/08/08 08:00:55;;;;;;;5.50;2.00;;;;;;;20.40;53.98;101257.88;106235;1271;22612;-71
2022/08/08 08:03:58;;;;;;;10.90;2.40;;;;;;;20.49;54.08;101256.30;106185;1271;22543;-70
2022/08/08 08:06:26;;;;;;;7.20;2.00;;;;;;;20.63;54.01;101254.86;106139;1271;22547;-71
2022/08/08 08:09:11;;;;;;;4.90;2.20;;;;;;;20.72;53.43;101250.98;106240;1271;22794;-70
2022/08/08 08:11:45;;;;;;;9.60;2.60;;;;;;;20.84;53.59;101257.66;106144;1271;25239;-72
2022/08/08 08:14:43;;;;;;;3.90;1.70;;;;;;;21.02;53.82;101263.63;105972;1271;22610;-72
2022/08/08 08:17:16;;;;;;;3.30;1.30;;;;;;;21.21;53.34;101256.45;105972;1271;24255;-69
2022/08/08 08:19:47;;;;;;;3.00;1.60;;;;;;;21.37;52.05;101259.41;105973;1271;22539;-72
2022/08/08 08:22:21;;;;;;;10.40;2.10;;;;;;;21.50;51.76;101260.49;106182;1271;26617;-72
2022/08/08 08:25:00;;;;;;;5.30;1.10;;;;;;;21.64;51.11;101257.23;106208;1271;25213;-72
2022/08/08 08:27:34;;;;;;;4.10;1.80;;;;;;;21.76;50.40;101259.59;106241;1271;25186;-70
2022/08/08 08:30:03;;;;;;;3.50;1.20;;;;;;;21.89;50.48;101251.55;106183;1272;22755;-72
2022/08/08 08:32:33;;;;;;;5.10;1.20;;;;;;;22.02;49.82;101252.23;105924;1277;25264;-74
2022/08/08 08:35:10;;;;;;;8.40;1.80;;;;;;;22.14;49.40;101255.14;105778;1277;25414;-71
2022/08/08 08:37:41;;;;;;;5.50;1.70;;;;;;;22.29;49.42;101257.15;105374;1281;25243;-80
2022/08/08 08:40:30;;;;;;;4.80;1.40;;;;;;;22.45;48.98;101258.78;105348;1282;22542;-73
2022/08/08 08:43:01;;;;;;;5.10;1.20;;;;;;;22.59;48.70;101259.05;105442;1282;25335;-73
2022/08/08 08:45:30;;;;;;;4.10;1.20;;;;;;;22.72;48.32;101258.33;105229;1286;25326;-70
2022/08/08 08:47:59;;;;;;;1.50;0.80;;;;;;;22.84;47.28;101255.23;105007;1285;22554;-72
2022/08/08 08:50:34;;;;;;;4.50;1.50;;;;;;;22.91;46.70;101253.52;105054;1282;22547;-75
2022/08/08 08:53:07;;;;;;;2.20;0.90;;;;;;;22.94;46.03;101248.30;105653;1281;22546;-70
2022/08/08 08:56:00;;;;;;;5.00;1.20;;;;;;;23.05;46.14;101248.50;105843;1274;22542;-72
2022/08/08 08:58:35;;;;;;;4.30;1.10;;;;;;;23.20;46.23;101241.30;106076;1274;22611;-73
2022/08/08 09:01:05;;;;;;;2.40;1.00;;;;;;;23.37;46.18;101242.32;106076;1274;22519;-73
2022/08/08 09:03:43;;;;;;;4.00;1.20;;;;;;;23.46;45.86;101242.43;105890;1271;22521;-72
2022/08/08 09:06:23;;;;;;;5.00;1.50;;;;;;;23.54;45.85;101243.64;106048;1271;24193;-75
2022/08/08 09:09:21;;;;;;;2.10;1.00;;;;;;;23.65;45.39;101241.84;106249;1271;25234;-72
2022/08/08 09:12:16;;;;;;;2.60;0.90;;;;;;;23.80;44.95;101238.76;105698;1277;25239;-71
2022/08/08 09:14:48;;;;;;;2.20;0.90;;;;;;;23.89;44.19;101237.02;105735;1276;23451;-73
2022/08/08 09:17:18;;;;;;;7.90;1.20;;;;;;;24.06;44.12;101235.98;105982;1277;23965;-72
2022/08/08 09:20:08;;;;;;;3.80;0.90;;;;;;;24.24;43.29;101235.60;105980;1277;26602;-72
2022/08/08 09:22:56;;;;;;;2.50;1.20;;;;;;;24.45;43.66;101232.31;105726;1277;24281;-72
2022/08/08 09:25:25;;;;;;;2.10;0.90;;;;;;;24.62;43.26;101230.90;104976;1284;22552;-74
2022/08/08 09:28:14;;;;;;;4.40;1.00;;;;;;;24.73;42.84;101226.50;105220;1284;23278;-73
2022/08/08 09:31:10;;;;;;;3.00;1.40;;;;;;;24.78;42.66;101233.80;105477;1279;22912;-73
2022/08/08 09:33:45;;;;;;;1.80;1.00;;;;;;;24.92;42.57;101232.63;105735;1279;25264;-72
2022/08/08 09:36:34;;;;;;;2.90;0.90;;;;;;;25.13;41.94;101228.08;105669;1279;26621;-74
2022/08/08 09:39:04;;;;;;;1.30;1.10;;;;;;;25.17;41.65;101226.77;105901;1276;25246;-77
2022/08/08 09:41:42;;;;;;;2.90;1.10;;;;;;;25.33;41.23;101225.66;105673;1279;25250;-74
2022/08/08 09:44:58;;;;;;;1.80;0.80;;;;;;;25.51;40.52;101222.27;105607;1279;22702;-70
2022/08/08 09:47:36;;;;;;;8.10;1.30;;;;;;;25.65;39.91;101223.45;105782;1278;23972;-75
2022/08/08 09:50:25;;;;;;;1.50;0.80;;;;;;;25.61;39.75;101225.31;105894;1271;25574;-70
2022/08/08 09:52:54;;;;;;;4.70;1.10;;;;;;;25.47;39.77;101223.61;106018;1271;25358;-73
2022/08/08 09:55:42;;;;;;;7.70;1.30;;;;;;;25.28;39.70;101227.39;106078;1271;22512;-71
2022/08/08 09:58:44;;;;;;;3.10;1.40;;;;;;;25.13;39.93;101228.79;106072;1274;22550;-72
2022/08/08 10:01:19;;;;;;;1.70;1.10;;;;;;;25.31;39.93;101226.13;106169;1271;24246;-69
2022/08/08 10:04:13;;;;;;;3.60;1.70;;;;;;;25.41;39.44;101222.67;106346;1271;24074;-72
2022/08/08 10:07:02;;;;;;;3.80;1.60;;;;;;;25.27;39.32;101223.30;106248;1271;26664;-69
2022/08/08 10:09:33;;;;;;;3.00;0.90;;;;;;;25.15;39.15;101226.89;106243;1271;26496;-70
2022/08/08 10:12:31;;;;;;;1.90;0.80;;;;;;;24.97;38.60;101230.62;106278;1271;24285;-71
2022/08/08 10:15:18;;;;;;;1.50;0.70;;;;;;;24.81;38.90;101227.65;106259;1271;22530;-69
2022/08/08 10:17:51;;;;;;;1.20;0.70;;;;;;;24.78;39.15;101222.42;106284;1271;25216;-71
2022/08/08 10:20:45;;;;;;;2.60;1.00;;;;;;;24.97;39.49;101224.98;106143;1271;25243;-69
2022/08/08 10:23:42;;;;;;;1.20;0.80;;;;;;;25.25;39.21;101217.83;105953;1271;25199;-71
2022/08/08 10:26:26;;;;;;;1.70;0.70;;;;;;;25.49;38.18;101212.27;106151;1271;25946;-71
2022/08/08 10:29:13;;;;;;;2.10;0.70;;;;;;;25.77;37.33;101212.13;106345;1271;22548;-71
2022/08/08 10:34:50;;;;;;;1.30;0.90;;;;;;;26.14;36.62;101211.67;106123;1271;22551;-72
2022/08/08 10:37:32;;;;;;;12.40;2.30;;;;;;;26.40;36.35;101209.56;106079;1271;25241;-71
2022/08/08 10:40:22;;;;;;;4.70;1.00;;;;;;;26.68;36.21;101209.04;105694;1277;22970;-73
2022/08/08 10:43:03;;;;;;;1.50;0.70;;;;;;;26.89;35.53;101203.92;105960;1277;23216;-73
2022/08/08 10:45:42;;;;;;;2.80;0.80;;;;;;;27.10;35.08;101204.40;105996;1277;22537;-71
2022/08/08 10:48:35;;;;;;;4.40;1.00;;;;;;;27.30;33.95;101197.50;105782;1276;26503;-70
2022/08/08 10:51:35;;;;;;;2.90;1.00;;;;;;;27.49;33.79;101188.39;105796;1277;22528;-71
2022/08/08 10:54:23;;;;;;;2.40;0.70;;;;;;;27.70;33.29;101196.27;105767;1276;25643;-71
2022/08/08 10:56:59;;;;;;;;;;;;;;;27.82;33.15;101195.27;105958;1277;25275;-75
2022/08/08 10:59:30;;;;;;;6.20;2.00;;;;;;;27.93;32.97;101192.86;106129;1271;25357;-70
2022/08/08 11:02:08;;;;;;;1.90;0.90;;;;;;;28.07;33.08;101189.93;106483;1271;24198;-74
2022/08/08 11:04:47;;;;;;;2.80;1.10;;;;;;;28.23;32.73;101192.05;106135;1271;22588;-75
2022/08/08 11:07:24;;;;;;;2.40;1.30;;;;;;;28.51;33.10;101186.66;106166;1271;24253;-69
2022/08/08 11:10:14;;;;;;;2.20;1.00;;;;;;;28.77;32.82;101187.49;106315;1271;25574;-73
2022/08/08 11:13:01;;;;;;;2.30;0.90;;;;;;;28.86;32.29;101180.61;106126;1271;22719;-76
2022/08/08 11:15:48;;;;;;;3.20;0.70;;;;;;;28.97;31.80;101180.42;106104;1271;22674;-69
2022/08/08 11:18:29;;;;;;;2.60;1.10;;;;;;;29.15;31.55;101182.35;106223;1271;25464;-72
2022/08/08 11:21:01;;;;;;;2.10;1.10;;;;;;;29.35;31.68;101182.30;106282;1271;23233;-74
2022/08/08 11:23:47;;;;;;;1.30;0.90;;;;;;;29.56;31.59;101177.82;106197;1271;22704;-71
2022/08/08 11:26:33;;;;;;;3.50;1.00;;;;;;;29.80;31.55;101178.36;106190;1271;25335;-72
2022/08/08 11:29:05;;;;;;;1.90;0.80;;;;;;;30.00;30.89;101182.23;106289;1271;25304;-74
2022/08/08 11:31:48;;;;;;;3.50;1.10;;;;;;;30.17;30.70;101183.58;106124;1271;26685;-71
2022/08/08 11:34:19;;;;;;;1.40;1.20;;;;;;;30.41;30.61;101178.07;106168;1271;22535;-74
2022/08/08 11:36:49;;;;;;;1.70;0.90;;;;;;;30.55;30.59;101176.60;106262;1271;25190;-77
2022/08/08 11:39:17;;;;;;;2.70;1.00;;;;;;;30.67;30.03;101175.48;106355;1271;25220;-74
2022/08/08 11:41:46;;;;;;;3.80;1.40;;;;;;;30.63;29.70;101175.39;106547;1274;25334;-72
2022/08/08 11:44:19;;;;;;;2.10;0.80;;;;;;;30.37;29.50;101175.02;106525;1271;25229;-73
2022/08/08 11:46:56;;;;;;;3.40;1.00;;;;;;;30.01;29.10;101176.34;106245;1271;22551;-69
2022/08/08 11:49:24;;;;;;;0.90;0.80;;;;;;;29.92;29.22;101175.39;106152;1277;22593;-70
2022/08/08 11:51:54;;;;;;;0.80;0.80;;;;;;;29.69;28.62;101173.21;105966;1277;25419;-71
2022/08/08 11:54:32;;;;;;;2.80;0.90;;;;;;;29.27;28.88;101181.23;105835;1277;22535;-71
2022/08/08 11:57:18;;;;;;;1.50;0.90;;;;;;;29.23;29.50;101176.63;105908;1277;24498;-72
2022/08/08 12:00:00;;;;;;;3.70;1.30;;;;;;;29.14;29.77;101175.66;105801;1277;22721;-72
2022/08/08 12:02:46;;;;;;;;;;;;;;;29.21;30.31;101175.03;105860;1277;22993;-72
2022/08/08 12:05:17;;;;;;;1.40;1.30;;;;;;;29.45;30.03;101180.25;106014;1277;22568;-74
2022/08/08 12:07:53;;;;;;;1.20;1.10;;;;;;;29.71;29.96;101176.13;106117;1271;24230;-73
2022/08/08 12:10:25;;;;;;;1.30;0.90;;;;;;;29.89;29.41;101174.91;106221;1271;23953;-74
2022/08/08 12:13:05;;;;;;;2.60;0.90;;;;;;;30.14;28.80;101171.84;105918;1277;24325;-73
2022/08/08 12:15:35;;;;;;;1.80;0.80;;;;;;;30.38;28.39;101169.98;105843;1277;22613;-74
2022/08/08 12:18:19;;;;;;;3.60;0.90;;;;;;;30.40;27.61;101170.02;105978;1277;25413;-74
2022/08/08 12:20:53;;;;;;;1.30;0.80;;;;;;;30.47;28.03;101165.27;105913;1277;25364;-73
2022/08/08 12:23:31;;;;;;;2.90;1.00;;;;;;;30.68;28.10;101167.02;106121;1277;22528;-72
2022/08/08 12:26:22;;;;;;;1.40;0.60;;;;;;;30.91;27.89;101163.73;106084;1275;25386;-74
2022/08/08 12:29:17;;;;;;;1.10;0.60;;;;;;;31.00;27.98;101162.55;106095;1277;22536;-75
2022/08/08 12:31:45;;;;;;;4.00;0.90;;;;;;;30.89;28.13;101170.80;106522;1271;25361;-72
2022/08/08 12:34:35;;;;;;;1.60;0.70;;;;;;;30.62;27.81;101172.06;106471;1271;22484;-72
2022/08/08 12:37:09;;;;;;;2.70;0.90;;;;;;;30.25;27.62;101172.85;106189;1271;24344;-74
2022/08/08 12:39:38;;;;;;;1.20;0.60;;;;;;;29.90;28.37;101170.64;106005;1277;24210;-73
2022/08/08 12:42:26;;;;;;;2.40;1.10;;;;;;;29.61;29.10;101168.54;105847;1277;24404;-73
2022/08/08 12:45:01;;;;;;;;;;;;;;;29.33;29.56;101169.59;105933;1277;25915;-81